createdAt,value
2022-12-03T00:03:38.901Z,1.80
2022-12-03T00:08:41.829Z,1.80
2022-12-03T00:13:45.393Z,1.80
2022-12-03T00:18:47.796Z,1.90
2022-12-03T00:23:50.322Z,1.80
2022-12-03T00:28:54.698Z,1.90
2022-12-03T00:33:57.198Z,1.90
2022-12-03T00:38:59.572Z,1.90
2022-12-03T00:44:01.988Z,2.00
2022-12-03T00:49:04.431Z,1.90
2022-12-03T00:54:06.805Z,1.90
2022-12-03T00:59:09.750Z,2.10
2022-12-03T01:04:12.189Z,2.20
2022-12-03T01:09:14.576Z,2.30
2022-12-03T01:14:19.319Z,2.30
2022-12-03T01:19:21.736Z,2.30
2022-12-03T01:24:24.173Z,2.40
2022-12-03T01:29:27.042Z,2.30
2022-12-03T01:34:29.488Z,2.30
2022-12-03T01:39:31.883Z,2.40
2022-12-03T01:44:36.505Z,2.40
2022-12-03T01:49:54.947Z,2.40
2022-12-03T01:55:00.073Z,2.40
2022-12-03T02:00:04.084Z,2.30
2022-12-03T02:05:17.338Z,2.50
2022-12-03T02:10:30.251Z,2.30
2022-12-03T02:15:32.726Z,2.20
2022-12-03T02:20:46.682Z,2.30
2022-12-03T02:25:49.227Z,2.30
2022-12-03T02:30:51.640Z,2.40
2022-12-03T02:35:56.058Z,2.40
2022-12-03T02:41:06.571Z,2.50
2022-12-03T02:46:09.121Z,2.30
2022-12-03T02:51:11.702Z,2.40
2022-12-03T02:56:17.702Z,2.40
2022-12-03T03:01:20.162Z,2.20
2022-12-03T03:06:24.311Z,2.20
2022-12-03T03:11:27.069Z,2.10
2022-12-03T03:16:29.728Z,1.90
2022-12-03T03:21:32.273Z,2.00
2022-12-03T03:26:34.839Z,2.10
2022-12-03T03:31:38.138Z,2.30
2022-12-03T03:36:41.200Z,2.20
2022-12-03T03:41:45.970Z,2.30
2022-12-03T03:46:48.785Z,2.30
2022-12-03T03:51:51.596Z,2.30
2022-12-03T03:56:54.008Z,2.20
2022-12-03T04:01:56.989Z,2.20
2022-12-03T04:06:59.539Z,2.40
2022-12-03T04:12:20.574Z,2.40
2022-12-03T04:17:23.217Z,2.30
2022-12-03T04:22:40.748Z,2.20
2022-12-03T04:28:01.655Z,2.20
2022-12-03T04:33:22.831Z,2.20
2022-12-03T04:38:25.201Z,2.20
2022-12-03T04:43:28.445Z,2.20
2022-12-03T04:48:30.907Z,2.20
2022-12-03T04:53:36.110Z,2.30
2022-12-03T04:58:38.673Z,2.20
2022-12-03T05:03:41.073Z,2.10
2022-12-03T05:08:43.497Z,2.10
2022-12-03T05:13:45.847Z,2.20
2022-12-03T05:18:48.354Z,2.30
2022-12-03T05:23:50.908Z,2.40
2022-12-03T05:28:53.297Z,2.30
2022-12-03T05:33:55.871Z,2.40
2022-12-03T05:38:58.255Z,2.50
2022-12-03T05:44:00.604Z,2.50
2022-12-03T05:49:02.974Z,2.40
2022-12-03T05:54:05.554Z,2.30
2022-12-03T05:59:08.060Z,2.30
2022-12-03T06:04:10.607Z,2.30
2022-12-03T06:09:13.164Z,2.40
2022-12-03T06:14:15.629Z,2.40
2022-12-03T06:19:19.350Z,2.40
2022-12-03T06:24:21.864Z,2.40
2022-12-03T06:29:24.307Z,3.30
2022-12-03T06:34:26.669Z,2.40
2022-12-03T06:39:30.752Z,2.60
2022-12-03T06:44:33.272Z,2.70
2022-12-03T06:49:35.720Z,2.90
2022-12-03T06:54:38.049Z,2.70
2022-12-03T06:59:40.484Z,2.70
2022-12-03T07:04:46.257Z,2.60
2022-12-03T07:09:48.909Z,2.40
2022-12-03T07:14:52.071Z,2.20
2022-12-03T07:19:54.748Z,2.10
2022-12-03T07:24:57.217Z,2.10
2022-12-03T07:29:59.563Z,2.00
2022-12-03T07:35:02.829Z,2.10
2022-12-03T07:40:06.176Z,2.10
2022-12-03T07:45:10.278Z,2.10
2022-12-03T07:50:28.274Z,1.90
2022-12-03T07:55:30.766Z,2.00
2022-12-03T08:00:33.479Z,1.90
2022-12-03T08:05:36.145Z,1.90
2022-12-03T08:10:38.468Z,2.00
2022-12-03T08:15:42.088Z,2.00
2022-12-03T08:20:46.421Z,2.00
2022-12-03T08:25:50.532Z,2.10
2022-12-03T08:31:19.656Z,1.90
2022-12-03T08:36:30.231Z,2.00
2022-12-03T08:41:51.131Z,2.10
2022-12-03T08:47:08.849Z,2.10
2022-12-03T08:52:20.304Z,2.10
2022-12-03T08:57:30.251Z,2.20
2022-12-03T09:02:34.402Z,2.20
2022-12-03T09:07:36.775Z,2.30
2022-12-03T09:12:39.140Z,2.30
2022-12-03T09:17:41.499Z,2.40
2022-12-03T09:22:43.925Z,2.20
2022-12-03T09:27:46.267Z,2.20
2022-12-03T09:32:48.670Z,2.40
2022-12-03T09:37:52.372Z,2.30
2022-12-03T09:42:58.471Z,2.40
2022-12-03T09:48:03.968Z,2.30
2022-12-03T09:53:06.585Z,2.30
2022-12-03T09:58:12.669Z,2.40
2022-12-03T10:03:18.593Z,2.60
2022-12-03T10:08:22.615Z,2.50
2022-12-03T10:13:30.647Z,2.60
2022-12-03T10:18:41.264Z,2.70
2022-12-03T10:23:48.252Z,2.70
2022-12-03T10:28:56.705Z,2.70
2022-12-03T10:33:59.069Z,2.70
2022-12-03T10:39:15.881Z,2.50
2022-12-03T10:44:20.771Z,2.60
2022-12-03T10:49:23.119Z,2.40
2022-12-03T10:54:27.416Z,2.60
2022-12-03T10:59:32.808Z,2.60
2022-12-03T11:04:36.487Z,2.70
2022-12-03T11:09:38.864Z,2.70
2022-12-03T11:14:51.951Z,2.70
2022-12-03T11:19:54.544Z,2.70
2022-12-03T11:25:25.109Z,2.70
2022-12-03T11:30:53.644Z,3.00
2022-12-03T11:36:05.508Z,3.00
2022-12-03T11:41:10.603Z,3.00
2022-12-03T11:46:13.089Z,2.90
2022-12-03T11:51:18.130Z,2.70
2022-12-03T11:56:24.398Z,2.80
2022-12-03T12:01:39.444Z,2.80
2022-12-03T12:06:48.765Z,2.80
2022-12-03T12:11:52.597Z,2.80
2022-12-03T12:16:55.389Z,2.90
2022-12-03T12:22:28.639Z,2.80
2022-12-03T12:27:36.286Z,2.80
2022-12-03T12:32:53.509Z,2.80
2022-12-03T12:38:00.882Z,2.80
2022-12-03T12:43:15.289Z,2.90
2022-12-03T12:48:27.642Z,2.80
2022-12-03T12:53:35.979Z,2.80
2022-12-03T12:58:38.438Z,2.80
2022-12-03T13:03:40.868Z,2.90
2022-12-03T13:08:46.863Z,2.80
2022-12-03T13:13:49.299Z,2.80
2022-12-03T13:18:57.574Z,2.70
2022-12-03T13:24:01.304Z,2.60
2022-12-03T13:29:12.042Z,2.50
2022-12-03T13:34:18.984Z,2.70
2022-12-03T13:39:31.279Z,2.70
2022-12-03T13:44:34.593Z,2.70
2022-12-03T13:49:37.083Z,2.60
2022-12-03T13:54:40.291Z,2.70
2022-12-03T13:59:42.796Z,2.80
2022-12-03T14:04:45.332Z,2.70
2022-12-03T14:09:47.934Z,2.80
2022-12-03T14:14:50.829Z,2.80
2022-12-03T14:19:53.734Z,2.80
2022-12-03T14:24:57.612Z,2.60
2022-12-03T14:30:00.153Z,2.70
2022-12-03T14:35:08.125Z,2.80
2022-12-03T14:40:16.519Z,2.90
2022-12-03T14:45:22.974Z,2.80
2022-12-03T14:50:25.424Z,2.90
2022-12-03T14:55:27.965Z,3.10
2022-12-03T15:00:30.335Z,2.90
2022-12-03T15:05:32.661Z,3.00
2022-12-03T15:10:35.062Z,2.80
2022-12-03T15:15:37.431Z,3.00
2022-12-03T15:20:39.919Z,2.90
2022-12-03T15:25:42.373Z,3.00
2022-12-03T15:30:44.835Z,3.00
2022-12-03T15:35:47.400Z,3.00
2022-12-03T15:40:49.877Z,3.10
2022-12-03T15:45:52.407Z,3.20
2022-12-03T15:50:54.789Z,3.20
2022-12-03T15:55:57.095Z,3.30
2022-12-03T16:01:00.207Z,3.40
2022-12-03T16:06:02.734Z,3.30
2022-12-03T16:11:05.603Z,3.40
2022-12-03T16:16:08.160Z,3.20
2022-12-03T16:21:10.658Z,3.40
2022-12-03T16:26:13.050Z,3.40
2022-12-03T16:31:15.478Z,3.40
2022-12-03T16:36:17.927Z,3.60
2022-12-03T16:41:22.325Z,3.50
2022-12-03T16:46:27.585Z,3.50
2022-12-03T16:51:30.338Z,3.40
2022-12-03T16:56:32.764Z,3.20
2022-12-03T17:01:35.207Z,3.30
2022-12-03T17:06:37.886Z,3.30
2022-12-03T17:11:40.478Z,3.40
2022-12-03T17:16:42.913Z,3.20
2022-12-03T17:21:46.576Z,3.20
2022-12-03T17:26:49.043Z,3.20
2022-12-03T17:31:51.426Z,2.90
2022-12-03T17:36:54.085Z,2.90
2022-12-03T17:41:56.485Z,2.80
2022-12-03T17:46:59.024Z,2.80
2022-12-03T17:52:01.616Z,2.90
2022-12-03T17:57:04.151Z,2.90
2022-12-03T18:02:06.831Z,2.90
2022-12-03T18:07:09.239Z,3.00
2022-12-03T18:12:11.651Z,2.90
2022-12-03T18:17:14.284Z,3.10
2022-12-03T18:22:17.195Z,3.00
2022-12-03T18:27:23.209Z,2.90
2022-12-03T18:32:29.181Z,2.80
2022-12-03T18:37:33.016Z,2.80
2022-12-03T18:42:35.667Z,2.80
2022-12-03T18:47:38.813Z,2.60
2022-12-03T18:52:41.271Z,2.60
2022-12-03T18:57:43.658Z,2.70
2022-12-03T19:03:02.309Z,2.60
2022-12-03T19:08:13.837Z,2.60
2022-12-03T19:13:16.474Z,2.80
2022-12-03T19:18:18.964Z,2.80
2022-12-03T19:23:21.399Z,2.90
2022-12-03T19:28:23.956Z,2.80
2022-12-03T19:33:28.679Z,2.80
2022-12-03T19:38:32.587Z,2.70
2022-12-03T19:43:36.656Z,2.70
2022-12-03T19:48:40.718Z,2.70
2022-12-03T19:53:43.375Z,2.70
2022-12-03T19:58:46.987Z,2.80
2022-12-03T20:03:52.530Z,2.70
2022-12-03T20:09:00.781Z,2.80
2022-12-03T20:14:06.683Z,2.90
2022-12-03T20:19:12.570Z,2.80
2022-12-03T20:24:17.083Z,2.80
2022-12-03T20:29:19.456Z,2.70
2022-12-03T20:34:22.005Z,2.70
2022-12-03T20:39:24.413Z,2.80
2022-12-03T20:44:26.802Z,2.80
2022-12-03T20:49:29.180Z,2.80
2022-12-03T20:54:31.656Z,2.80
2022-12-03T20:59:34.086Z,2.80
2022-12-03T21:04:36.553Z,2.70
2022-12-03T21:09:38.984Z,3.20
2022-12-03T21:14:41.329Z,2.80
2022-12-03T21:19:43.677Z,2.70
2022-12-03T21:24:46.451Z,2.70
2022-12-03T21:29:48.982Z,2.70
2022-12-03T21:34:51.365Z,2.70
2022-12-03T21:39:54.050Z,2.70
2022-12-03T21:44:56.872Z,2.80
2022-12-03T21:49:59.325Z,2.70
2022-12-03T21:55:01.731Z,2.90
2022-12-03T22:00:08.703Z,2.90
2022-12-03T22:05:13.925Z,2.70
2022-12-03T22:10:16.364Z,2.50
2022-12-03T22:15:19.689Z,2.60
2022-12-03T22:20:22.358Z,2.60
2022-12-03T22:25:24.790Z,2.60
2022-12-03T22:30:27.171Z,2.60
2022-12-03T22:35:29.580Z,2.60
2022-12-03T22:40:31.929Z,2.70
2022-12-03T22:45:35.237Z,2.60
2022-12-03T22:50:45.730Z,2.60
2022-12-03T22:55:56.290Z,2.60
2022-12-03T23:01:02.954Z,2.60
2022-12-03T23:06:10.787Z,2.60
2022-12-03T23:11:13.555Z,2.70
2022-12-03T23:16:19.914Z,2.70
2022-12-03T23:21:29.459Z,2.50
2022-12-03T23:26:37.575Z,2.70
2022-12-03T23:31:39.979Z,2.70
2022-12-03T23:36:42.544Z,2.60
2022-12-03T23:41:45.007Z,2.60
2022-12-03T23:46:48.187Z,2.60
2022-12-03T23:51:50.676Z,2.70
2022-12-03T23:56:53.168Z,2.70
